• Join FlightAware (Why Join?)
  • Login
  • US Flag 
04:05AM EST


 

Airport Tracker/Info


-or-


 

Live Flight TrackerFlight Track Log ✈ OPT429 ✈ 06-Jul-2014 ✈ KMMU - KPLN

Flight Track Log - Related Links

Times and Time Zones

All times are in EDT time to prevent confusion due to time zone crossing. See the OPT429 flight status page for this flight to view local times or setup timezone preferences in your user account.

Time Position Orientation Groundspeed Altitude Reporting Facility
EDT Latitude Longitude Course Direction KTS MPH feet Rate Location/Type
04:55PM 40.7500 -74.4167 49° Northeast 197 227 2,600  Level New York TRACON
04:56PM 40.7833 -74.3667 49° Northeast 246 283 5,000 1,740 Climbing New York TRACON
04:57PM 40.8253 -74.3800 346° North 296 341 5,500 2,820 Climbing New York Center
04:58PM 40.9019 -74.3922 353° North 260 299 9,700 3,120 Climbing New York Center
04:59PM 40.9642 -74.4011 354° North 278 320 11,900 1,080 Climbing New York Center
05:00PM 41.0522 -74.3783 11° North 290 334 11,900 300 Level New York Center
05:01PM 41.1150 -74.3044 42° Northeast 306 352 12,600 1,860 Climbing New York Center
05:02PM 41.1981 -74.2400 30° Northeast 329 379 15,800 1,620 Climbing New York Center
05:03PM 41.2783 -74.2717 343° North 313 360 15,900 780 Climbing New York Center
05:04PM 41.3744 -74.3375 333° Northwest 331 381 17,400 1,680 Climbing New York Center
05:05PM 41.4325 -74.4125 316° Northwest 342 394 19,400 2,640 Climbing New York Center
05:06PM 41.4733 -74.5061 300° West 313 360 22,800 2,940 Climbing New York Center
05:07PM 41.5136 -74.6081 298° West 300 345 25,200 1,920 Climbing New York Center
05:08PM 41.5564 -74.7047 301° West 307 353 26,700 1,440 Climbing New York Center
05:09PM 41.6028 -74.8100 301° West 319 367 28,200 1,440 Climbing New York Center
05:10PM 41.6508 -74.9214 300° West 337 388 29,700 1,500 Climbing New York Center
05:11PM 41.6989 -75.0381 299° West 349 402 31,200 1,500 Climbing New York Center
05:12PM 41.7486 -75.1553 300° West 359 413 32,700 1,380 Climbing New York Center
05:13PM 41.8006 -75.2728 301° West 365 420 34,100 1,140 Climbing New York Center
05:15PM 41.8833 -75.5000 296° West 390 449 36,200 960 Climbing Toronto Center
05:16PM 41.9583 -75.6517 304° West 385 443 37,100 900 Climbing New York Center
05:17PM 42.0114 -75.7811 299° West 385 443 38,100 960 Climbing New York Center
05:18PM 42.0642 -75.9108 299° West 390 449 39,100 840 Climbing New York Center
05:20PM 42.1836 -76.2208 298° West 386 444 41,200 780 Climbing Cleveland Center
05:22PM 42.2256 -76.3517 293° West 384 442 42,000 600 Climbing Cleveland Center
05:23PM 42.2661 -76.4750 294° West 382 440 42,500 480 Climbing Cleveland Center
05:24PM 42.3153 -76.6314 293° West 381 438 43,000 240 Climbing Cleveland Center
05:25PM 42.3564 -76.7619 293° West 381 438 43,000  Level Cleveland Center
05:26PM 42.3997 -76.8981 293° West 388 447 43,000  Level Cleveland Center
05:27PM 42.4422 -77.0361 293° West 394 453 43,000  Level Cleveland Center
05:28PM 42.4864 -77.1769 293° West 402 463 43,000  Level Cleveland Center
05:29PM 42.5297 -77.3183 293° West 406 467 43,000  Level Cleveland Center
05:30PM 42.5761 -77.4706 293° West 408 470 43,000  Level Cleveland Center
05:31PM 42.6300 -77.6475 293° West 417 480 43,000  Level Cleveland Center
05:33PM 42.7225 -77.9494 293° West 427 491 43,000  Level Cleveland Center
05:34PM 42.7675 -78.0975 293° West 424 488 43,000  Level Cleveland Center
05:35PM 42.8103 -78.2458 292° West 424 488 43,000  Level Cleveland Center
05:37PM 42.8992 -78.5439 292° West 425 489 43,000  Level Cleveland Center
05:38PM 42.9522 -78.7239 292° West 428 493 43,000  Level Cleveland Center
05:39PM 42.9994 -78.8731 293° West 429 494 43,000  Level Cleveland Center
05:40PM 43.0467 -79.0225 293° West 428 493 43,000  Level Cleveland Center
05:41PM 43.0833 -79.1333 294° West 420 483 43,000  Level Toronto Center
05:42PM 43.1333 -79.2833 295° West 420 483 43,000  Level Toronto Center
05:43PM 43.1667 -79.4333 287° West 420 483 43,000  Level Toronto Center
05:44PM 43.2167 -79.5667 297° West 420 483 43,000  Level Toronto Center
05:45PM 43.2500 -79.7167 287° West 420 483 43,000  Level Toronto Center
05:47PM 43.3500 -80.0000 293° West 410 472 43,000  Level Toronto Center
05:49PM 43.4333 -80.3000 291° West 410 472 43,000  Level Toronto Center
05:50PM 43.4833 -80.4667 293° West 410 472 43,000  Level Toronto Center
05:51PM 43.5333 -80.5833 301° West 410 472 43,000  Level Toronto Center
05:52PM 43.5833 -80.7333 295° West 400 460 43,000  Level Toronto Center
05:53PM 43.6167 -80.8500 292° West 400 460 43,000  Level Toronto Center
05:54PM 43.6667 -81.0167 293° West 400 460 43,000  Level Toronto Center
05:55PM 43.7000 -81.1333 292° West 400 460 43,000  Level Toronto Center
05:56PM 43.7500 -81.2667 297° West 390 449 43,000  Level Toronto Center
05:57PM 43.8000 -81.4167 295° West 390 449 43,000  Level Toronto Center
05:58PM 43.8500 -81.5500 298° West 390 449 43,000  Level Toronto Center
06:00PM 43.9306 -81.7756 296° West 392 451 43,000  Level Minneapolis Center
06:01PM 43.9764 -81.9122 295° West 392 451 43,000  Level Minneapolis Center
06:02PM 44.0319 -82.0753 295° West 392 451 43,000  Level Minneapolis Center
06:03PM 44.0667 -82.2333 287° West 390 449 43,000 -120 Level Toronto Center
06:04PM 44.1167 -82.3667 298° West 390 449 42,800 -540 Descending Toronto Center
06:05PM 44.1828 -82.4714 311° West 390 449 42,100 -1,320 Descending Minneapolis Center
06:06PM 44.2583 -82.5875 312° West 397 457 40,400 -1,680 Descending Minneapolis Center
06:07PM 44.3286 -82.7019 311° West 397 457 38,600 -1,980 Descending Minneapolis Center
06:08PM 44.4111 -82.8353 311° West 387 445 36,400 -1,500 Descending Minneapolis Center
06:10PM 44.5464 -83.0597 310° West 378 435 34,000 -600 Descending Minneapolis Center
06:12PM 44.6808 -83.2847 310° West 379 436 34,000 -300 Level Minneapolis Center
06:14PM 44.8350 -83.5458 310° West 398 458 32,900 -1,020 Descending Minneapolis Center
06:15PM 44.9058 -83.6647 310° West 399 459 30,900 -2,040 Descending Minneapolis Center
06:16PM 44.9722 -83.7775 310° West 386 444 28,700 -3,420 Descending Minneapolis Center
06:17PM 45.0361 -83.8892 309° West 375 432 23,900 -5,040 Descending Minneapolis Center
06:18PM 45.1122 -84.0214 309° West 373 429 18,300 -5,040 Descending Minneapolis Center
06:20PM 45.2000 -84.1833 313° West 340 391 10,200 -4,140 Descending Toronto Center
06:21PM 45.2500 -84.2833 305° West 290 334 7,200 -3,000 Descending Toronto Center
06:22PM 45.2833 -84.3500 305° West 250 288 4,300 -1,740 Descending Toronto Center
06:23PM 45.3678 -84.4678 316° Northwest 249 287 3,000 -420 Descending Minneapolis Center
06:26PM 45.4511 -84.6161 325° Northwest 237 273 2,900 -180 Descending Minneapolis Center
06:28PM 45.5256 -84.7453 311° West 220 253 2,500 -240 Descending Minneapolis Center
06:30PM 45.5667 -84.7833 325° Northwest  Level FlightAware Approximate
06:37PM 45.5709 -84.7967 325° Northwest  Level Estimated
06:38PM 45.5709 -84.7967 325° Northwest  Level Estimated